Time;durP1;ratioP1;P1;durP2;ratioP2;P2;SDS_P1;SDS_P2;PMS_P1;PMS_P2;Temp;Humidity;BMP_temperature;BMP_pressure;BME280_temperature;BME280_humidity;BME280_pressure;Samples;Min_cycle;Max_cycle;Signal;HPM_P1;HPM_P2
2022/01/05 00:02:13;;;;;;;53.55;34.58;;;;;;;3.86;76.83;94657.16;5008690;28;20569;-66
2022/01/05 00:04:38;;;;;;;47.03;32.92;;;;;;;4.11;75.59;94673.94;5008551;28;20026;-63
2022/01/05 00:07:04;;;;;;;49.03;30.83;;;;;;;4.09;76.04;94675.75;5007202;28;20091;-66
2022/01/05 00:09:30;;;;;;;47.08;30.58;;;;;;;4.01;76.14;94668.41;5008931;28;20729;-66
2022/01/05 00:11:56;;;;;;;46.65;31.83;;;;;;;4.10;75.66;94678.22;5008861;28;20044;-65
2022/01/05 00:14:21;;;;;;;43.97;30.85;;;;;;;4.01;75.53;94648.00;5008627;28;20469;-64
2022/01/05 00:16:47;;;;;;;40.78;28.02;;;;;;;4.11;75.17;94679.88;5007907;28;20022;-67
2022/01/05 00:19:12;;;;;;;47.58;29.95;;;;;;;4.09;75.61;94668.09;5008626;28;20625;-64
2022/01/05 00:21:40;;;;;;;49.35;28.88;;;;;;;4.15;75.45;94671.19;5008037;28;20050;-65
2022/01/05 00:24:06;;;;;;;43.30;29.42;;;;;;;4.29;75.09;94674.88;5008380;28;20049;-66
2022/01/05 00:26:31;;;;;;;42.40;29.88;;;;;;;4.20;74.88;94663.34;5008152;28;20121;-63
2022/01/05 00:28:57;;;;;;;42.70;30.05;;;;;;;4.27;74.62;94666.47;5007820;28;20112;-65
2022/01/05 00:31:22;;;;;;;44.45;30.40;;;;;;;4.16;75.12;94675.41;5008079;28;20104;-66
2022/01/05 00:33:50;;;;;;;42.83;27.27;;;;;;;3.97;74.88;94642.22;5008184;28;20057;-63
2022/01/05 00:36:15;;;;;;;47.60;29.65;;;;;;;3.88;75.18;94631.56;5008285;28;20030;-64
2022/01/05 00:38:41;;;;;;;42.88;27.83;;;;;;;4.10;75.01;94670.56;5007939;28;20056;-66
2022/01/05 00:41:06;;;;;;;42.58;28.30;;;;;;;4.24;74.96;94675.06;5007763;28;20073;-62
2022/01/05 00:43:32;;;;;;;47.65;29.15;;;;;;;4.31;74.87;94680.72;5008126;28;20022;-65
2022/01/05 00:45:57;;;;;;;42.15;27.70;;;;;;;4.30;74.67;94653.56;5008092;28;20022;-65
2022/01/05 00:48:23;;;;;;;42.95;29.00;;;;;;;4.20;74.45;94650.59;5007861;28;20108;-65
2022/01/05 00:50:48;;;;;;;42.33;26.73;;;;;;;4.11;75.08;94654.34;5008453;28;20045;-64
2022/01/05 00:53:14;;;;;;;41.15;28.40;;;;;;;4.11;74.48;94639.03;5007468;28;20026;-62
2022/01/05 00:55:39;;;;;;;48.33;29.80;;;;;;;4.14;74.86;94664.44;5008041;28;20025;-66
2022/01/05 00:58:05;;;;;;;41.92;28.92;;;;;;;4.08;74.95;94651.94;5007812;28;20049;-64
2022/01/05 01:00:31;;;;;;;35.50;24.10;;;;;;;4.24;74.08;94665.69;5008551;28;20096;-63
2022/01/05 01:02:56;;;;;;;42.47;26.67;;;;;;;4.20;74.00;94651.41;5007976;28;20453;-65
2022/01/05 01:05:22;;;;;;;41.45;27.00;;;;;;;4.00;74.75;94647.19;5007772;28;20022;-67
2022/01/05 01:07:47;;;;;;;43.95;28.38;;;;;;;4.10;75.41;94656.97;5008157;28;20041;-65
2022/01/05 01:10:13;;;;;;;42.13;26.50;;;;;;;4.08;75.45;94654.47;5007809;28;20018;-65
2022/01/05 01:12:39;;;;;;;44.50;28.85;;;;;;;4.02;75.27;94650.50;5007791;28;20030;-65
2022/01/05 01:15:07;;;;;;;46.80;30.80;;;;;;;4.16;75.12;94651.59;5007574;28;20389;-65
2022/01/05 01:17:33;;;;;;;40.45;28.00;;;;;;;3.97;74.87;94620.97;5007429;28;20022;-66
2022/01/05 01:19:58;;;;;;;43.55;28.98;;;;;;;4.02;75.32;94647.13;5007972;28;20117;-63
2022/01/05 01:22:27;;;;;;;40.22;28.98;;;;;;;4.07;75.65;94659.66;5008053;28;20029;-64
2022/01/05 01:24:52;;;;;;;41.83;29.83;;;;;;;4.10;75.29;94655.28;5007640;28;20049;-65
2022/01/05 01:27:17;;;;;;;45.20;30.17;;;;;;;4.12;75.44;94647.53;5008049;28;20072;-64
2022/01/05 01:29:43;;;;;;;43.30;29.60;;;;;;;4.07;75.64;94646.88;5007435;28;20121;-65
2022/01/05 01:32:08;;;;;;;43.83;29.77;;;;;;;4.07;75.72;94642.63;5007697;28;20058;-64
2022/01/05 01:34:34;;;;;;;46.15;29.63;;;;;;;3.99;74.72;94624.28;5007896;28;20061;-65
2022/01/05 01:36:59;;;;;;;46.03;28.20;;;;;;;4.16;74.06;94637.13;5007873;28;20080;-64
2022/01/05 01:39:25;;;;;;;43.03;29.38;;;;;;;4.13;74.29;94644.09;5007854;28;20026;-66
2022/01/05 01:41:50;;;;;;;39.88;28.13;;;;;;;4.04;74.44;94624.91;5007758;28;20014;-65
2022/01/05 01:44:17;;;;;;;46.78;29.90;;;;;;;3.78;74.84;94601.34;5007567;28;20034;-64
2022/01/05 01:46:43;;;;;;;42.40;28.75;;;;;;;3.99;75.02;94632.75;5007731;28;20093;-66
2022/01/05 01:49:08;;;;;;;42.15;27.73;;;;;;;3.89;75.03;94615.34;5007310;28;20025;-62
2022/01/05 01:51:34;;;;;;;38.13;28.42;;;;;;;3.71;74.86;94586.41;5009491;28;20512;-67
2022/01/05 01:54:00;;;;;;;46.38;29.30;;;;;;;3.61;74.96;94575.75;5011241;28;20148;-65
2022/01/05 01:56:31;;;;;;;46.10;29.42;;;;;;;4.00;74.59;94633.56;5011151;28;20040;-65
2022/01/05 01:58:56;;;;;;;40.47;27.42;;;;;;;3.97;75.40;94636.28;5011432;28;20038;-64
2022/01/05 02:01:22;;;;;;;38.33;25.98;;;;;;;3.93;75.01;94630.47;5011128;28;20049;-64
2022/01/05 02:03:47;;;;;;;48.15;27.85;;;;;;;3.87;74.85;94633.31;5010976;28;20103;-65
2022/01/05 02:06:13;;;;;;;44.80;29.23;;;;;;;3.68;75.60;94611.13;5010763;28;20460;-67
2022/01/05 02:08:38;;;;;;;40.15;26.92;;;;;;;3.53;75.43;94588.81;5010755;28;20140;-64
2022/01/05 02:11:06;;;;;;;42.15;27.10;;;;;;;3.84;75.47;94631.69;5010914;28;20026;-65
2022/01/05 02:13:32;;;;;;;34.13;26.17;;;;;;;3.71;75.54;94610.16;5010696;28;20432;-66
2022/01/05 02:15:57;;;;;;;39.25;26.48;;;;;;;3.85;75.51;94628.25;5010943;28;20026;-63
2022/01/05 02:20:49;;;;;;;43.80;29.95;;;;;;;3.63;76.11;94613.03;5010498;28;20527;-66
2022/01/05 02:23:15;;;;;;;41.17;27.05;;;;;;;3.57;76.49;94622.66;5010580;28;20034;-65
2022/01/05 02:25:41;;;;;;;44.47;28.90;;;;;;;3.41;77.43;94625.88;5010231;28;20030;-65
2022/01/05 02:28:06;;;;;;;44.72;27.58;;;;;;;3.45;77.65;94624.81;5010074;28;20104;-63
2022/01/05 02:30:32;;;;;;;41.22;27.67;;;;;;;3.55;77.14;94622.72;5010407;28;20445;-64
2022/01/05 02:32:58;;;;;;;46.00;26.90;;;;;;;3.68;76.59;94615.41;5010440;28;20452;-66
2022/01/05 02:35:24;;;;;;;40.22;25.75;;;;;;;3.69;76.21;94619.63;5010469;28;20033;-64
2022/01/05 02:37:52;;;;;;;37.08;25.45;;;;;;;3.56;76.31;94606.56;5010428;28;20041;-64
2022/01/05 02:40:20;;;;;;;44.22;27.55;;;;;;;3.59;76.72;94608.97;5010212;28;20057;-65
2022/01/05 02:42:46;;;;;;;39.28;26.20;;;;;;;3.55;76.43;94615.06;5010058;28;20022;-63
2022/01/05 02:45:13;;;;;;;40.63;25.45;;;;;;;3.45;77.25;94619.72;5010171;28;20511;-63
2022/01/05 02:47:40;;;;;;;40.13;26.42;;;;;;;3.51;77.08;94613.56;5009988;28;20038;-63
2022/01/05 02:50:08;;;;;;;42.95;26.83;;;;;;;3.36;76.90;94578.50;5010171;28;20030;-64
2022/01/05 02:52:34;;;;;;;37.78;25.67;;;;;;;3.56;77.12;94604.00;5009848;28;20113;-64
2022/01/05 02:55:00;;;;;;;43.33;27.80;;;;;;;3.50;77.11;94604.25;5010199;28;20337;-64
2022/01/05 02:57:26;;;;;;;43.33;28.98;;;;;;;3.43;76.99;94580.75;5009567;28;20284;-63
2022/01/05 02:59:53;;;;;;;41.75;25.95;;;;;;;3.54;77.21;94597.28;5009901;28;20116;-64
2022/01/05 03:02:18;;;;;;;41.97;29.17;;;;;;;3.28;77.33;94546.53;5008719;28;20100;-64
2022/01/05 03:04:44;;;;;;;48.25;32.28;;;;;;;3.54;76.64;94587.91;5009518;28;20144;-63
2022/01/05 03:07:09;;;;;;;63.65;40.75;;;;;;;3.27;77.14;94555.06;5009713;28;20034;-64
2022/01/05 03:09:35;;;;;;;66.82;44.85;;;;;;;3.60;77.29;94604.69;5009858;28;20022;-62
2022/01/05 03:12:00;;;;;;;67.75;46.35;;;;;;;3.35;77.39;94559.84;5009814;28;20041;-63
2022/01/05 03:14:26;;;;;;;59.67;37.28;;;;;;;3.83;76.99;94596.06;5009505;28;20042;-63
2022/01/05 03:16:51;;;;;;;56.88;35.83;;;;;;;3.80;76.71;94593.63;5009246;28;20080;-62
2022/01/05 03:19:17;;;;;;;55.05;38.53;;;;;;;3.63;77.16;94595.19;5009393;28;20053;-63
2022/01/05 03:21:42;;;;;;;57.58;38.10;;;;;;;3.42;77.96;94589.25;5009387;28;20481;-65
2022/01/05 03:24:08;;;;;;;50.53;31.48;;;;;;;3.44;77.81;94592.59;5009496;28;20470;-64
2022/01/05 03:26:33;;;;;;;51.10;34.08;;;;;;;3.53;77.65;94598.22;5009256;28;20037;-63
2022/01/05 03:28:59;;;;;;;46.33;28.77;;;;;;;3.54;76.81;94593.00;5008727;28;20053;-64
2022/01/05 03:31:25;;;;;;;45.92;30.42;;;;;;;3.51;77.11;94603.38;5009274;28;20095;-64
2022/01/05 03:33:50;;;;;;;45.50;28.10;;;;;;;3.42;77.40;94584.16;5009398;28;20030;-64
2022/01/05 03:36:15;;;;;;;38.90;25.05;;;;;;;3.60;75.56;94587.66;5008895;28;20452;-64
2022/01/05 03:38:41;;;;;;;38.55;25.83;;;;;;;3.56;76.02;94600.59;5009317;28;20499;-63
2022/01/05 03:41:07;;;;;;;48.97;34.55;;;;;;;3.41;76.39;94589.31;5008864;28;20042;-63
2022/01/05 03:43:32;;;;;;;88.13;55.20;;;;;;;3.06;76.75;94536.38;5009021;28;20026;-63
2022/01/05 03:45:58;;;;;;;67.75;43.15;;;;;;;3.20;77.07;94579.16;5008571;28;20409;-63
2022/01/05 03:48:24;;;;;;;66.05;41.17;;;;;;;3.13;76.79;94563.28;5009065;28;20041;-64
2022/01/05 03:50:50;;;;;;;62.83;41.55;;;;;;;3.39;76.44;94586.84;5008967;28;20040;-64
2022/01/05 03:53:15;;;;;;;40.03;23.42;;;;;;;3.40;75.87;94593.59;5008267;28;20033;-64
2022/01/05 03:55:43;;;;;;;36.40;24.77;;;;;;;3.22;76.41;94589.28;5008864;28;20032;-62
2022/01/05 03:58:09;;;;;;;41.75;27.52;;;;;;;3.06;77.37;94594.97;5008649;28;20048;-64
2022/01/05 04:00:42;;;;;;;39.08;26.80;;;;;;;2.99;77.25;94596.13;5009506;28;20026;-64
2022/01/05 04:03:07;;;;;;;45.13;28.25;;;;;;;2.74;77.88;94564.00;5009189;28;20374;-64
2022/01/05 04:05:33;;;;;;;56.25;33.40;;;;;;;2.96;77.26;94596.25;5008679;28;20060;-63
2022/01/05 04:07:58;;;;;;;50.75;30.65;;;;;;;2.92;77.75;94585.38;5008533;28;20029;-64
2022/01/05 04:10:25;;;;;;;48.17;30.55;;;;;;;2.87;77.93;94577.09;5009182;28;20101;-65
2022/01/05 04:12:50;;;;;;;50.75;29.75;;;;;;;2.93;77.79;94578.53;5008344;28;20117;-64
2022/01/05 04:15:17;;;;;;;51.22;31.45;;;;;;;2.91;78.09;94568.41;5008531;28;20100;-62
2022/01/05 04:17:43;;;;;;;55.15;34.35;;;;;;;3.03;77.36;94576.44;5008176;28;20512;-63
2022/01/05 04:20:11;;;;;;;46.28;31.67;;;;;;;3.04;77.60;94573.84;5008483;28;20026;-63
2022/01/05 04:22:36;;;;;;;57.95;37.58;;;;;;;3.08;76.94;94574.53;5008527;28;20030;-62
2022/01/05 04:25:02;;;;;;;57.05;36.55;;;;;;;3.02;77.12;94570.53;5008791;28;20383;-63
2022/01/05 04:27:28;;;;;;;51.65;33.58;;;;;;;3.02;77.28;94562.91;5008438;28;20363;-63
2022/01/05 04:29:53;;;;;;;55.38;35.45;;;;;;;2.98;77.66;94561.34;5008191;28;20144;-63
2022/01/05 04:32:19;;;;;;;58.97;35.58;;;;;;;2.91;77.90;94562.50;5008589;28;20113;-63
2022/01/05 04:34:44;;;;;;;68.05;39.08;;;;;;;2.94;78.08;94562.38;5008668;28;20041;-63
2022/01/05 04:37:10;;;;;;;59.90;37.42;;;;;;;2.91;77.78;94572.69;5006050;28;20037;-63
2022/01/05 04:39:36;;;;;;;63.47;38.03;;;;;;;2.60;78.36;94552.72;5008284;28;20548;-63
2022/01/05 04:42:02;;;;;;;64.13;39.67;;;;;;;2.68;78.59;94565.97;5007994;28;20112;-64
2022/01/05 04:44:27;;;;;;;64.63;42.03;;;;;;;2.83;78.46;94579.81;5008610;28;20026;-64
2022/01/05 04:46:53;;;;;;;62.80;39.42;;;;;;;2.78;78.56;94572.34;5008433;28;20026;-63
2022/01/05 04:49:18;;;;;;;63.83;40.22;;;;;;;2.81;78.62;94581.59;5008374;28;20054;-64
2022/01/05 04:51:44;;;;;;;65.90;38.58;;;;;;;2.71;78.78;94559.03;5007888;28;20030;-64
2022/01/05 04:54:09;;;;;;;59.15;38.60;;;;;;;2.76;78.14;94566.50;5008659;28;20533;-62
2022/01/05 04:56:34;;;;;;;61.83;38.42;;;;;;;2.73;78.29;94549.59;5007852;28;20026;-64
2022/01/05 04:59:00;;;;;;;61.85;41.70;;;;;;;2.85;78.31;94578.03;5007915;28;20030;-63
2022/01/05 05:01:25;;;;;;;66.30;43.08;;;;;;;2.84;78.66;94586.56;5008186;28;20092;-63
2022/01/05 05:03:51;;;;;;;72.57;46.85;;;;;;;2.92;79.17;94592.19;5008053;28;20026;-64
2022/01/05 05:06:17;;;;;;;77.13;49.63;;;;;;;2.79;78.93;94574.00;5008536;28;20092;-63
2022/01/05 05:08:43;;;;;;;74.75;49.95;;;;;;;2.88;79.00;94590.63;5008218;28;20060;-63
2022/01/05 05:11:08;;;;;;;77.55;50.65;;;;;;;2.91;79.23;94598.16;5006977;28;20026;-64
2022/01/05 05:13:33;;;;;;;78.68;52.90;;;;;;;2.85;79.01;94589.03;5008240;28;20165;-63
2022/01/05 05:15:59;;;;;;;82.45;52.20;;;;;;;1.55;78.96;94396.50;5008059;28;20025;-64
2022/01/05 05:18:24;;;;;;;79.88;53.13;;;;;;;2.93;78.86;94597.19;5008214;28;20022;-64
2022/01/05 05:20:50;;;;;;;73.22;47.33;;;;;;;3.11;78.05;94608.34;5008632;28;20097;-64
2022/01/05 05:23:16;;;;;;;70.25;45.85;;;;;;;3.06;78.43;94610.25;5008348;28;20112;-65
2022/01/05 05:25:42;;;;;;;69.85;45.75;;;;;;;2.89;78.88;94610.94;5009209;28;20033;-64
2022/01/05 05:28:08;;;;;;;75.10;47.17;;;;;;;2.92;79.12;94623.56;5011586;28;20083;-66
2022/01/05 05:30:34;;;;;;;65.80;42.25;;;;;;;2.89;78.88;94621.13;5012184;28;20026;-64
2022/01/05 05:33:00;;;;;;;69.60;41.72;;;;;;;2.86;79.15;94622.97;5012078;28;20574;-63
2022/01/05 05:35:27;;;;;;;62.20;40.22;;;;;;;2.79;79.51;94617.31;5011989;28;20022;-63
2022/01/05 05:37:53;;;;;;;64.72;41.65;;;;;;;2.78;79.58;94625.81;5011824;28;20061;-63
2022/01/05 05:40:19;;;;;;;52.42;36.38;;;;;;;2.85;79.30;94619.59;5011289;28;20026;-65
2022/01/05 05:42:44;;;;;;;55.03;35.13;;;;;;;3.05;78.20;94615.41;5011777;28;20026;-64
2022/01/05 05:45:10;;;;;;;49.40;33.25;;;;;;;2.93;78.17;94599.72;5011976;28;20038;-63
2022/01/05 05:47:35;;;;;;;41.90;29.42;;;;;;;3.12;77.91;94611.75;5011632;28;20041;-65
2022/01/05 05:50:00;;;;;;;45.38;27.55;;;;;;;3.06;77.56;94617.91;5011594;28;20026;-65
2022/01/05 05:52:26;;;;;;;41.08;28.15;;;;;;;3.01;78.09;94619.81;5011124;28;20429;-64
2022/01/05 05:54:52;;;;;;;49.40;32.22;;;;;;;2.84;78.25;94619.66;5011549;28;20040;-64
2022/01/05 05:57:18;;;;;;;49.25;31.50;;;;;;;2.81;78.96;94615.50;5011021;28;20057;-63
2022/01/05 05:59:44;;;;;;;51.28;31.40;;;;;;;2.74;79.05;94627.66;5011030;28;20034;-64
2022/01/05 06:02:09;;;;;;;46.03;31.45;;;;;;;2.76;79.26;94622.50;5011277;28;20549;-64
2022/01/05 06:04:35;;;;;;;45.88;30.42;;;;;;;2.86;79.18;94620.44;5010901;28;20556;-64
2022/01/05 06:07:00;;;;;;;47.88;31.08;;;;;;;2.92;78.93;94615.09;5011250;28;20024;-65
2022/01/05 06:09:26;;;;;;;36.85;25.95;;;;;;;3.13;77.82;94615.94;5011491;28;20026;-64
2022/01/05 06:11:52;;;;;;;39.05;27.48;;;;;;;2.88;77.40;94573.63;5010737;28;20076;-64
2022/01/05 06:14:17;;;;;;;49.13;28.58;;;;;;;3.02;77.89;94610.47;5010985;28;20492;-64
2022/01/05 06:16:43;;;;;;;47.60;29.15;;;;;;;2.94;77.44;94592.94;5008738;28;20124;-65
2022/01/05 06:19:09;;;;;;;46.35;30.85;;;;;;;2.93;77.37;94581.09;5011196;28;20112;-66
2022/01/05 06:21:35;;;;;;;44.60;28.67;;;;;;;3.20;76.46;94619.06;5011365;28;20432;-64
2022/01/05 06:24:00;;;;;;;45.53;26.98;;;;;;;3.27;76.37;94635.78;5010837;28;20030;-65
2022/01/05 06:26:25;;;;;;;45.92;26.92;;;;;;;3.29;76.34;94639.91;5010688;28;20052;-64
2022/01/05 06:28:51;;;;;;;41.13;28.52;;;;;;;3.18;76.64;94639.53;5010370;28;20022;-65
2022/01/05 06:31:17;;;;;;;46.60;29.02;;;;;;;3.06;77.13;94637.47;5010781;28;20026;-64
2022/01/05 06:33:42;;;;;;;41.25;27.08;;;;;;;3.23;77.00;94644.44;5011222;28;20099;-63
2022/01/05 06:36:08;;;;;;;42.95;27.60;;;;;;;3.03;76.28;94595.09;5010541;28;20030;-63
2022/01/05 06:38:33;;;;;;;42.53;26.30;;;;;;;3.26;76.50;94639.22;5010638;28;20071;-67
2022/01/05 06:40:59;;;;;;;37.92;26.55;;;;;;;3.00;77.03;94628.38;5010521;28;20022;-67
2022/01/05 06:43:25;;;;;;;44.85;25.73;;;;;;;3.30;76.90;94641.59;5009481;28;20029;-64
2022/01/05 06:45:50;;;;;;;38.58;26.90;;;;;;;3.30;76.89;94645.84;5007033;28;20038;-64
2022/01/05 06:48:16;;;;;;;44.72;28.98;;;;;;;3.23;77.06;94654.63;5003789;28;20604;-63
2022/01/05 06:50:42;;;;;;;44.05;29.30;;;;;;;3.37;76.70;94649.00;5006774;28;20026;-64
2022/01/05 06:53:07;;;;;;;47.55;29.98;;;;;;;3.37;76.69;94638.78;5006981;28;20400;-64
2022/01/05 06:55:33;;;;;;;46.28;29.38;;;;;;;3.18;76.84;94608.13;5007426;28;20021;-65
2022/01/05 06:57:59;;;;;;;41.17;28.05;;;;;;;3.50;76.80;94633.09;5006501;28;20477;-65
2022/01/05 07:00:26;;;;;;;43.05;28.80;;;;;;;3.56;76.09;94618.44;5006044;28;20469;-64
2022/01/05 07:02:51;;;;;;;43.22;29.08;;;;;;;3.79;75.56;94628.53;5006900;28;20103;-65
2022/01/05 07:05:17;;;;;;;46.70;29.08;;;;;;;3.93;75.20;94637.31;5006378;28;20046;-64
2022/01/05 07:07:43;;;;;;;47.42;28.80;;;;;;;3.98;74.51;94615.78;5006740;28;20052;-65
2022/01/05 07:10:10;;;;;;;40.05;28.25;;;;;;;4.19;74.27;94626.78;5007084;28;20550;-66
2022/01/05 07:12:36;;;;;;;40.78;27.45;;;;;;;4.32;73.18;94624.50;5003806;28;21042;-65
2022/01/05 07:15:03;;;;;;;45.08;28.55;;;;;;;4.34;73.41;94639.75;5005422;28;20033;-65
2022/01/05 07:17:28;;;;;;;42.72;29.10;;;;;;;4.46;72.83;94623.91;5006302;28;20091;-63
2022/01/05 07:19:54;;;;;;;44.70;29.50;;;;;;;4.63;72.36;94633.34;5008257;28;20022;-64
2022/01/05 07:22:19;;;;;;;41.67;27.00;;;;;;;4.50;72.09;94578.63;5006815;28;20120;-64
2022/01/05 07:24:45;;;;;;;40.85;26.35;;;;;;;4.93;70.73;94631.06;5008844;28;20041;-64
2022/01/05 07:27:10;;;;;;;36.88;26.17;;;;;;;4.79;71.18;94608.75;5008187;28;20037;-64
2022/01/05 07:29:36;;;;;;;37.78;24.08;;;;;;;4.97;70.83;94627.47;5007697;28;20116;-64
2022/01/05 07:32:02;;;;;;;35.08;24.33;;;;;;;4.94;70.04;94609.75;5009110;28;20034;-67
2022/01/05 07:34:27;;;;;;;38.10;25.50;;;;;;;5.23;69.58;94638.22;5008666;28;20084;-67
2022/01/05 07:36:53;;;;;;;38.58;25.75;;;;;;;5.26;69.74;94640.63;5008834;28;20056;-64
2022/01/05 07:39:18;;;;;;;46.22;29.38;;;;;;;5.33;68.93;94634.28;5008868;28;20026;-66
2022/01/05 07:41:44;;;;;;;56.70;37.10;;;;;;;5.34;68.39;94635.97;5008115;28;20021;-64
2022/01/05 07:44:09;;;;;;;84.13;54.00;;;;;;;5.16;68.33;94621.50;5007969;28;20200;-64
2022/01/05 07:46:35;;;;;;;94.13;62.97;;;;;;;5.22;67.57;94648.50;5007828;28;20037;-64
2022/01/05 07:49:02;;;;;;;93.03;61.13;;;;;;;5.11;68.16;94642.16;5007982;28;20034;-64
2022/01/05 07:51:29;;;;;;;85.38;53.88;;;;;;;5.12;67.57;94648.94;5008358;28;20034;-65
2022/01/05 07:53:55;;;;;;;72.60;48.80;;;;;;;5.24;66.92;94646.69;5008089;28;20049;-64
2022/01/05 07:56:20;;;;;;;75.72;47.70;;;;;;;5.25;66.09;94631.28;5008278;28;20033;-63
2022/01/05 07:58:47;;;;;;;77.20;51.00;;;;;;;5.29;66.56;94637.88;5007864;28;20084;-64
2022/01/05 08:01:15;;;;;;;79.13;49.40;;;;;;;5.07;67.23;94645.78;5008393;28;20474;-66
2022/01/05 08:03:40;;;;;;;75.28;48.22;;;;;;;5.25;67.18;94641.50;5008078;28;20084;-65
2022/01/05 08:06:05;;;;;;;72.78;43.88;;;;;;;5.32;66.90;94645.41;5008022;28;20489;-65
2022/01/05 08:08:31;;;;;;;77.68;47.80;;;;;;;5.15;66.86;94627.53;5007785;28;20455;-64
2022/01/05 08:10:57;;;;;;;80.90;52.47;;;;;;;5.08;67.26;94636.38;5008245;28;20372;-64
2022/01/05 08:13:24;;;;;;;73.00;48.28;;;;;;;5.13;66.88;94629.31;5007644;28;20044;-67
2022/01/05 08:15:50;;;;;;;71.50;47.55;;;;;;;5.30;66.66;94649.78;5007238;28;20409;-64
2022/01/05 08:18:16;;;;;;;77.45;46.22;;;;;;;5.45;66.20;94650.75;5007776;28;20034;-65
2022/01/05 08:20:41;;;;;;;66.10;46.20;;;;;;;5.44;66.10;94610.75;5008277;28;20030;-64
2022/01/05 08:23:06;;;;;;;71.97;44.40;;;;;;;5.60;65.65;94620.22;5008273;28;20068;-64
2022/01/05 08:25:32;;;;;;;69.65;43.78;;;;;;;6.22;64.52;94639.25;5007623;28;20485;-64
2022/01/05 08:27:57;;;;;;;61.95;40.33;;;;;;;9.78;55.78;94616.75;5007286;28;20034;-65
2022/01/05 08:30:25;;;;;;;54.63;34.03;;;;;;;12.50;46.27;94614.59;5007508;28;20354;-65
2022/01/05 08:32:53;;;;;;;43.38;30.52;;;;;;;14.15;41.35;94612.66;5007764;28;20036;-65
2022/01/05 08:35:21;;;;;;;46.10;29.63;;;;;;;15.46;37.76;94532.22;5007849;28;20556;-65
2022/01/05 08:37:48;;;;;;;38.03;27.48;;;;;;;17.23;35.51;94607.78;5007651;28;20045;-65
2022/01/05 08:40:18;;;;;;;39.42;27.05;;;;;;;18.02;32.74;94540.16;5007409;28;20026;-64
2022/01/05 08:42:44;;;;;;;31.30;22.35;;;;;;;19.51;30.71;94596.38;5006766;28;20405;-64
2022/01/05 08:45:10;;;;;;;26.27;19.40;;;;;;;20.33;29.03;94601.59;5007323;28;20029;-65
2022/01/05 08:47:36;;;;;;;28.60;19.80;;;;;;;20.93;27.79;94595.06;5007434;28;20036;-66
2022/01/05 08:50:03;;;;;;;23.88;19.45;;;;;;;21.88;26.51;94580.88;5007626;28;20029;-65
2022/01/05 08:52:28;;;;;;;27.63;19.02;;;;;;;22.16;25.00;94568.00;5006743;28;20018;-66
2022/01/05 08:54:57;;;;;;;22.80;17.67;;;;;;;21.87;25.58;94602.06;5007254;28;20029;-65
2022/01/05 08:57:22;;;;;;;34.70;21.17;;;;;;;21.38;25.78;94606.66;5007315;28;20475;-65
2022/01/05 09:03:19;;;;;;;25.33;18.20;;;;;;;24.17;23.03;94591.38;5012112;28;20117;-66
2022/01/05 09:05:50;;;;;;;25.38;18.10;;;;;;;24.62;22.25;94562.94;5010817;28;20022;-65
2022/01/05 09:08:16;;;;;;;23.42;18.48;;;;;;;24.74;21.66;94548.22;5010935;28;20475;-64
2022/01/05 09:10:43;;;;;;;20.30;16.30;;;;;;;25.86;20.21;94575.13;5011305;28;20025;-65
2022/01/05 09:13:09;;;;;;;26.85;20.40;;;;;;;26.62;19.39;94577.53;5011138;28;20018;-64
2022/01/05 09:15:35;;;;;;;25.42;17.92;;;;;;;27.16;19.17;94575.56;5010716;28;20369;-65
2022/01/05 09:18:02;;;;;;;21.83;17.55;;;;;;;27.59;18.65;94565.16;5009463;28;20026;-64
2022/01/05 09:20:27;;;;;;;20.00;15.82;;;;;;;26.69;18.80;94573.06;5010789;28;20468;-65
2022/01/05 09:22:52;;;;;;;21.95;16.90;;;;;;;28.02;17.73;94567.16;5010894;28;20080;-64
2022/01/05 09:25:18;;;;;;;18.10;15.73;;;;;;;28.95;16.74;94559.34;5011197;28;20477;-66
2022/01/05 09:27:45;;;;;;;18.67;15.02;;;;;;;29.61;16.39;94554.22;5010352;28;20413;-65
2022/01/05 09:30:12;;;;;;;22.65;15.23;;;;;;;30.10;15.79;94546.94;5010811;28;20437;-66
2022/01/05 09:32:39;;;;;;;18.92;14.15;;;;;;;29.95;15.58;94536.75;5010852;28;20030;-67
2022/01/05 09:35:06;;;;;;;18.63;14.00;;;;;;;29.81;15.94;94543.31;5010952;28;20449;-64
2022/01/05 09:37:36;;;;;;;17.02;14.45;;;;;;;30.23;15.67;94543.25;5010412;28;20413;-65
2022/01/05 09:42:47;;;;;;;17.88;13.90;;;;;;;30.49;14.92;94534.03;5010352;28;20095;-64
2022/01/05 09:45:19;;;;;;;17.73;13.68;;;;;;;30.17;15.24;94531.72;5010657;28;20029;-64
2022/01/05 09:48:22;;;;;;;18.40;15.02;;;;;;;29.80;15.69;94534.53;5010143;28;20018;-64
2022/01/05 09:50:58;;;;;;;19.05;15.75;;;;;;;30.13;15.44;94519.91;5010454;28;20574;-64
2022/01/05 09:53:24;;;;;;;19.10;14.98;;;;;;;30.28;15.42;94484.88;5010278;28;20084;-65
2022/01/05 09:55:51;;;;;;;20.65;15.30;;;;;;;30.28;15.54;94514.13;5010159;28;20097;-66
2022/01/05 09:58:22;;;;;;;17.73;14.32;;;;;;;30.82;15.32;94516.63;5008595;28;20050;-65
2022/01/05 10:00:49;;;;;;;15.82;12.82;;;;;;;31.07;14.66;94492.38;5010425;28;20040;-65
2022/01/05 10:03:15;;;;;;;15.63;12.27;;;;;;;30.93;14.32;94499.03;5010364;28;20079;-66
2022/01/05 10:05:41;;;;;;;13.50;11.55;;;;;;;30.54;14.91;94506.72;5009989;28;20037;-66
2022/01/05 10:08:07;;;;;;;14.48;12.88;;;;;;;30.57;14.97;94503.59;5010019;28;20026;-66
2022/01/05 10:10:33;;;;;;;17.08;11.95;;;;;;;30.45;14.68;94405.22;5009906;28;20033;-64
2022/01/05 10:12:59;;;;;;;16.25;12.32;;;;;;;31.20;14.40;94485.16;5009225;28;20060;-66
2022/01/05 10:15:26;;;;;;;15.23;12.90;;;;;;;31.19;14.63;94473.72;5010006;28;20105;-65
2022/01/05 10:18:09;;;;;;;17.08;12.13;;;;;;;32.05;14.14;94494.88;5009295;28;20022;-66
2022/01/05 10:20:34;;;;;;;19.88;12.30;;;;;;;32.30;13.70;94485.66;5009149;28;20497;-65
2022/01/05 10:22:59;;;;;;;17.48;13.13;;;;;;;32.48;13.49;94449.88;5009431;28;20052;-65
2022/01/05 10:25:25;;;;;;;17.70;12.88;;;;;;;33.04;13.41;94481.00;5009905;28;20109;-65
2022/01/05 10:28:01;;;;;;;15.57;12.15;;;;;;;33.28;12.82;94468.19;5009859;28;20117;-65
2022/01/05 10:30:40;;;;;;;14.55;11.57;;;;;;;33.28;12.99;94471.66;5010499;28;20037;-65
2022/01/05 10:33:07;;;;;;;17.42;13.00;;;;;;;33.60;12.72;94459.38;5009987;28;20041;-64
2022/01/05 10:35:34;;;;;;;15.25;12.35;;;;;;;33.70;12.73;94456.84;5009353;28;20091;-67
2022/01/05 10:38:07;;;;;;;17.40;12.55;;;;;;;33.25;12.90;94445.44;5009587;28;20072;-66
2022/01/05 10:40:34;;;;;;;19.42;13.48;;;;;;;33.19;13.16;94456.34;5009031;28;20025;-70
2022/01/05 10:43:07;;;;;;;17.35;12.70;;;;;;;33.47;12.70;94456.09;5006377;28;20026;-73
2022/01/05 10:45:47;;;;;;;14.23;11.82;;;;;;;32.94;12.74;94445.13;5009278;28;20040;-67
2022/01/05 10:48:24;;;;;;;17.80;12.82;;;;;;;33.17;13.20;94426.41;5009522;28;20096;-69
2022/01/05 10:51:03;;;;;;;15.95;13.00;;;;;;;33.36;12.44;94413.50;5008962;28;20309;-68
2022/01/05 10:53:29;;;;;;;;;;;;;;;33.56;12.65;94427.00;5009299;28;20441;-68
2022/01/05 10:55:54;;;;;;;25.58;18.67;;;;;;;32.94;13.04;94396.25;5009451;28;19920;-69
2022/01/05 10:58:20;;;;;;;21.35;15.48;;;;;;;32.93;12.85;94416.81;5008662;28;20131;-64
2022/01/05 11:00:50;;;;;;;15.75;13.43;;;;;;;33.62;12.92;94417.97;5008704;28;20033;-65
2022/01/05 11:03:28;;;;;;;15.73;13.18;;;;;;;33.08;12.65;94429.50;5009083;28;20053;-66
2022/01/05 11:06:11;;;;;;;16.75;13.80;;;;;;;31.65;13.91;94421.22;5008234;28;20037;-66
2022/01/05 11:08:54;;;;;;;18.95;15.73;;;;;;;32.81;13.55;94420.66;5008533;28;20125;-66
2022/01/05 11:11:42;;;;;;;19.73;14.48;;;;;;;32.79;13.30;94420.91;5009081;28;20132;-65
2022/01/05 11:14:18;;;;;;;16.48;13.25;;;;;;;32.97;13.34;94409.88;5007945;28;20092;-67
2022/01/05 11:16:50;;;;;;;17.23;13.95;;;;;;;33.10;12.96;94406.00;5008193;28;20371;-65
2022/01/05 11:19:29;;;;;;;19.17;13.25;;;;;;;32.93;13.33;94400.78;5008746;28;20497;-67
2022/01/05 11:22:05;;;;;;;15.35;12.32;;;;;;;33.04;13.98;94369.66;5008103;28;20436;-67
2022/01/05 11:24:38;;;;;;;14.65;12.30;;;;;;;32.65;14.27;94390.31;5007271;28;20029;-69
2022/01/05 11:27:05;;;;;;;15.00;11.32;;;;;;;32.73;14.00;94387.22;5008117;28;20042;-69
2022/01/05 11:29:30;;;;;;;17.42;13.30;;;;;;;31.43;14.06;94351.03;5022108;28;20041;-70
2022/01/05 11:31:57;;;;;;;17.80;14.57;;;;;;;31.65;13.70;94380.47;5008397;28;20101;-68